Time;durP1;ratioP1;P1;durP2;ratioP2;P2;SDS_P1;SDS_P2;PMS_P1;PMS_P2;Temp;Humidity;BMP_temperature;BMP_pressure;BME280_temperature;BME280_humidity;BME280_pressure;Samples;Min_cycle;Max_cycle;Signal;HPM_P1;HPM_P2
2023/03/23 00:01:49;;;;;;;9.63;6.45;;;;;;;11.10;85.47;100811.19;4971246;28;20025;-89
2023/03/23 00:04:16;;;;;;;17.52;8.20;;;;;;;11.22;85.70;100815.56;4971267;28;20117;-88
2023/03/23 00:06:42;;;;;;;12.10;7.80;;;;;;;11.18;85.33;100814.09;4969981;28;20023;-88
2023/03/23 00:09:08;;;;;;;12.13;7.72;;;;;;;11.18;85.72;100814.97;4971669;28;20431;-88
2023/03/23 00:11:33;;;;;;;12.43;8.23;;;;;;;11.19;85.38;100815.81;4972001;28;20557;-88
2023/03/23 00:14:03;;;;;;;12.07;7.32;;;;;;;11.18;86.00;100808.72;4971128;28;20018;-88
2023/03/23 00:16:32;;;;;;;12.15;8.35;;;;;;;11.17;85.95;100810.56;4972166;28;20482;-88
2023/03/23 00:19:23;;;;;;;17.23;8.35;;;;;;;11.19;85.57;100821.22;4970394;28;20041;-89
2023/03/23 00:21:53;;;;;;;13.88;8.63;;;;;;;11.09;86.15;100793.31;4893740;29;20049;-88
2023/03/23 00:24:19;;;;;;;13.95;7.82;;;;;;;11.13;86.89;100816.31;4893650;29;20041;-90
2023/03/23 00:26:46;;;;;;;15.73;7.72;;;;;;;11.20;86.63;100806.75;4894103;29;20055;-90
2023/03/23 00:29:16;;;;;;;11.57;7.53;;;;;;;11.15;86.19;100799.06;4898823;29;20680;-89
2023/03/23 00:31:46;;;;;;;10.68;7.90;;;;;;;11.21;86.56;100808.47;4898221;29;20036;-88
2023/03/23 00:34:19;;;;;;;12.88;7.25;;;;;;;11.14;87.04;100807.25;4917399;29;20040;-87
2023/03/23 00:36:50;;;;;;;18.77;7.53;;;;;;;11.20;86.81;100796.84;4917672;29;20124;-87
2023/03/23 00:39:17;;;;;;;11.43;7.78;;;;;;;11.14;85.77;100794.66;4896588;29;20421;-89
2023/03/23 00:41:43;;;;;;;14.80;8.48;;;;;;;11.18;86.64;100797.94;4893234;29;20033;-89
2023/03/23 00:44:09;;;;;;;18.60;8.95;;;;;;;11.22;86.11;100811.03;4877509;29;20040;-90
2023/03/23 00:46:44;;;;;;;17.40;8.32;;;;;;;11.21;86.92;100805.78;4893451;29;20088;-89
2023/03/23 00:49:13;;;;;;;13.93;8.07;;;;;;;11.22;86.61;100796.72;4898077;29;20139;-90
2023/03/23 00:51:40;;;;;;;16.38;9.73;;;;;;;11.22;85.96;100788.66;4881938;29;20036;-90
2023/03/23 00:54:07;;;;;;;11.32;8.70;;;;;;;11.13;86.62;100775.94;4896735;29;20041;-88
2023/03/23 00:56:33;;;;;;;13.32;8.50;;;;;;;11.26;86.50;100803.56;4901253;29;20112;-90
2023/03/23 00:58:58;;;;;;;11.25;7.35;;;;;;;11.25;86.13;100800.00;4959102;28;20062;-89
2023/03/23 01:01:24;;;;;;;13.20;8.50;;;;;;;11.23;85.96;100784.97;4996754;28;20083;-89
2023/03/23 01:03:49;;;;;;;17.77;8.60;;;;;;;11.20;85.71;100785.22;4996136;28;20038;-90
2023/03/23 01:06:15;;;;;;;15.52;9.18;;;;;;;11.27;86.51;100789.13;4994314;28;20038;-89
2023/03/23 01:08:45;;;;;;;15.07;8.32;;;;;;;11.28;86.46;100788.97;4969983;29;20074;-89
2023/03/23 01:11:13;;;;;;;10.70;7.95;;;;;;;11.31;86.43;100795.97;4954156;29;20039;-90
2023/03/23 01:13:39;;;;;;;13.70;8.45;;;;;;;11.20;86.37;100785.22;4970979;29;20093;-88
2023/03/23 01:16:05;;;;;;;15.32;8.95;;;;;;;11.29;86.69;100789.84;4962126;28;20039;-90
2023/03/23 01:18:30;;;;;;;15.27;9.10;;;;;;;11.29;86.41;100787.16;4956575;28;20047;-88
2023/03/23 01:20:56;;;;;;;20.38;10.43;;;;;;;11.32;86.57;100781.50;4952264;29;20039;-90
2023/03/23 01:23:21;;;;;;;15.38;8.90;;;;;;;11.18;86.36;100779.09;4949662;29;20043;-89
2023/03/23 01:25:47;;;;;;;15.35;9.38;;;;;;;11.25;86.13;100783.03;4939978;29;20043;-90
2023/03/23 01:28:12;;;;;;;11.27;8.02;;;;;;;11.22;86.40;100788.66;4962529;29;20416;-91
2023/03/23 01:30:38;;;;;;;13.10;8.43;;;;;;;11.05;86.06;100797.22;4944764;29;20483;-89
2023/03/23 01:33:03;;;;;;;10.52;7.30;;;;;;;11.05;86.29;100791.84;4972229;28;20027;-86
2023/03/23 01:35:29;;;;;;;12.98;8.10;;;;;;;11.03;86.28;100778.53;4974327;28;20022;-88
2023/03/23 01:37:54;;;;;;;12.85;8.65;;;;;;;11.20;86.36;100790.59;4962854;28;20043;-89
2023/03/23 01:40:20;;;;;;;14.23;8.43;;;;;;;11.10;86.48;100786.97;4949887;28;20126;-90
2023/03/23 01:42:45;;;;;;;18.67;8.30;;;;;;;11.16;87.24;100789.97;4975207;28;20031;-90
2023/03/23 01:45:37;;;;;;;12.65;9.18;;;;;;;11.22;87.40;100791.34;4976505;28;20027;-90
2023/03/23 01:48:05;;;;;;;15.60;7.85;;;;;;;11.22;87.07;100788.66;4978725;28;20030;-89
2023/03/23 01:50:36;;;;;;;12.93;8.88;;;;;;;11.20;86.92;100790.59;4983678;28;20019;-89
2023/03/23 01:53:08;;;;;;;17.08;9.40;;;;;;;11.19;86.60;100786.22;4981917;28;20098;-89
2023/03/23 01:55:36;;;;;;;12.32;8.35;;;;;;;11.26;86.02;100803.56;4997247;28;20049;-86
2023/03/23 01:58:02;;;;;;;12.55;8.23;;;;;;;11.27;86.63;100789.13;4996694;28;20558;-88
2023/03/23 02:00:30;;;;;;;11.45;8.35;;;;;;;11.41;86.54;100799.59;4991562;28;20038;-90
2023/03/23 02:02:56;;;;;;;11.15;6.53;;;;;;;11.43;86.29;100789.59;4988664;28;20030;-89
2023/03/23 02:05:29;;;;;;;9.35;6.30;;;;;;;11.51;84.98;100799.72;4981012;28;20034;-87
2023/03/23 02:08:02;;;;;;;10.68;7.45;;;;;;;11.44;84.26;100777.81;4975384;28;20126;-90
2023/03/23 02:10:31;;;;;;;11.13;7.20;;;;;;;11.34;83.90;100768.81;4972236;28;20201;-90
2023/03/23 02:13:00;;;;;;;13.85;6.85;;;;;;;11.46;83.75;100789.34;4977793;28;20063;-89
2023/03/23 02:15:30;;;;;;;7.25;6.10;;;;;;;11.45;83.81;100801.09;4955713;28;20054;-89
2023/03/23 02:18:05;;;;;;;10.18;6.15;;;;;;;11.39;84.47;100796.19;4955567;28;20122;-91
2023/03/23 02:20:49;;;;;;;11.25;6.68;;;;;;;11.41;84.92;100788.84;4973452;28;20046;-90
2023/03/23 02:23:33;;;;;;;9.80;6.40;;;;;;;11.53;84.45;100797.78;4973642;28;20035;-90
2023/03/23 02:26:43;;;;;;;8.90;4.90;;;;;;;11.55;83.29;100802.03;4967921;28;20019;-90
2023/03/23 02:29:16;;;;;;;8.55;4.85;;;;;;;11.39;82.85;100788.13;4941140;29;20078;-90
2023/03/23 02:32:05;;;;;;;9.00;6.03;;;;;;;11.49;82.94;100807.94;4947477;28;20108;-87
2023/03/23 02:34:55;;;;;;;9.00;7.63;;;;;;;11.47;82.44;100789.19;4957906;28;20044;-87
2023/03/23 02:37:56;;;;;;;6.78;5.93;;;;;;;11.56;82.45;100803.72;4946362;28;20156;-89
2023/03/23 02:40:32;;;;;;;6.88;5.20;;;;;;;11.59;81.64;100806.16;4880204;29;20112;-89
2023/03/23 02:42:59;;;;;;;5.38;4.18;;;;;;;11.56;81.85;100803.72;4878705;29;20083;-91
2023/03/23 02:45:28;;;;;;;6.97;4.85;;;;;;;11.42;81.67;100766.31;4877142;29;20049;-90
2023/03/23 02:48:13;;;;;;;7.20;4.68;;;;;;;11.68;81.57;100808.09;4876346;29;20115;-90
2023/03/23 02:50:44;;;;;;;7.80;5.18;;;;;;;11.53;81.61;100787.81;4876596;29;20045;-90
2023/03/23 02:53:12;;;;;;;10.25;5.88;;;;;;;11.75;82.10;100809.34;4878440;29;20484;-90
2023/03/23 02:55:41;;;;;;;13.63;6.90;;;;;;;11.68;81.85;100808.09;4878820;29;20146;-90
2023/03/23 02:58:11;;;;;;;12.07;8.63;;;;;;;11.68;81.80;100808.09;4877855;29;20055;-90
2023/03/23 03:00:37;;;;;;;14.10;9.98;;;;;;;11.64;81.77;100812.06;4876439;29;20044;-88
2023/03/23 03:03:05;;;;;;;14.48;10.32;;;;;;;11.59;82.70;100811.56;4877675;29;20117;-90
2023/03/23 03:06:01;;;;;;;13.88;11.15;;;;;;;11.70;83.18;100818.81;4873288;29;20104;-91
2023/03/23 03:08:50;;;;;;;20.30;15.15;;;;;;;11.63;83.17;100820.25;4899119;29;20188;-89
2023/03/23 03:11:25;;;;;;;22.77;16.52;;;;;;;11.60;83.42;100815.13;4915619;29;20048;-91
2023/03/23 03:14:17;;;;;;;24.40;16.67;;;;;;;11.50;84.11;100812.31;4914239;29;20416;-90
2023/03/23 03:16:47;;;;;;;26.08;16.13;;;;;;;11.48;84.86;100822.38;4923648;28;20039;-92
2023/03/23 03:19:18;;;;;;;23.45;15.88;;;;;;;11.46;84.84;100818.97;4972748;28;20034;-90
2023/03/23 03:21:46;;;;;;;22.43;15.93;;;;;;;11.44;85.32;100824.47;4973659;28;20479;-89
2023/03/23 03:24:15;;;;;;;20.02;14.55;;;;;;;11.52;84.88;100817.59;4988022;28;20274;-90
2023/03/23 03:26:47;;;;;;;20.50;14.68;;;;;;;11.52;84.67;100815.75;4980545;28;20522;-89
2023/03/23 03:29:17;;;;;;;25.25;15.25;;;;;;;11.46;84.41;100816.25;4980881;28;20046;-90
2023/03/23 03:31:47;;;;;;;22.70;15.23;;;;;;;11.47;84.43;100810.75;4990794;28;20022;-86
2023/03/23 03:34:17;;;;;;;31.45;16.67;;;;;;;11.50;85.32;100820.41;4996685;28;20033;-89
2023/03/23 03:36:45;;;;;;;26.02;17.00;;;;;;;11.52;84.76;100823.84;4986780;28;20117;-90
2023/03/23 03:39:14;;;;;;;24.95;17.13;;;;;;;11.53;84.66;100817.44;4976494;28;20105;-89
2023/03/23 03:41:40;;;;;;;24.75;16.90;;;;;;;11.50;85.10;100827.66;4975140;28;20068;-89
2023/03/23 03:44:07;;;;;;;23.45;15.77;;;;;;;11.51;85.12;100832.03;4972299;28;20479;-88
2023/03/23 03:46:41;;;;;;;18.88;14.23;;;;;;;11.55;84.93;100834.38;4980677;28;20054;-92
2023/03/23 03:49:08;;;;;;;19.88;12.25;;;;;;;11.56;84.16;100830.66;4928505;29;20036;-89
2023/03/23 03:51:35;;;;;;;12.30;8.65;;;;;;;11.53;83.53;100822.84;4923505;29;20043;-89
2023/03/23 03:54:01;;;;;;;8.88;6.70;;;;;;;11.46;81.99;100818.97;4951137;29;20046;-87
2023/03/23 03:56:26;;;;;;;10.45;6.57;;;;;;;11.45;82.00;100828.00;4952938;29;20213;-88
2023/03/23 03:58:53;;;;;;;10.02;6.03;;;;;;;11.48;81.81;100835.84;4948011;29;20040;-88
2023/03/23 04:01:23;;;;;;;8.68;6.57;;;;;;;11.45;81.48;100819.94;4949378;29;20039;-89
2023/03/23 04:03:50;;;;;;;8.55;6.82;;;;;;;11.54;81.53;100838.03;4950693;29;20047;-88
2023/03/23 04:06:16;;;;;;;8.88;6.90;;;;;;;11.51;81.33;100832.91;4933086;29;20031;-89
2023/03/23 04:08:42;;;;;;;8.98;7.00;;;;;;;11.54;81.92;100832.66;4929154;29;20035;-87
2023/03/23 04:11:10;;;;;;;9.85;7.85;;;;;;;11.46;81.91;100829.72;4950355;29;20087;-90
2023/03/23 04:13:36;;;;;;;16.15;7.35;;;;;;;11.48;81.06;100833.16;4932671;29;20174;-88
2023/03/23 04:16:02;;;;;;;10.88;7.38;;;;;;;11.44;81.26;100831.69;4943162;29;20031;-88
2023/03/23 04:18:28;;;;;;;10.45;7.13;;;;;;;11.51;80.83;100837.41;4930692;29;20102;-87
2023/03/23 04:20:58;;;;;;;7.05;4.75;;;;;;;11.58;80.91;100849.41;4978261;28;20034;-89
2023/03/23 04:23:25;;;;;;;8.82;4.70;;;;;;;11.55;80.25;100850.53;4991178;28;20034;-88
2023/03/23 04:25:53;;;;;;;15.20;9.13;;;;;;;11.53;79.82;100847.09;4992314;28;20023;-90
2023/03/23 04:28:23;;;;;;;17.70;12.23;;;;;;;11.56;80.20;100846.84;4992437;28;20030;-89
2023/03/23 04:30:52;;;;;;;40.22;24.00;;;;;;;11.55;80.63;100846.97;4966395;28;20050;-89
2023/03/23 04:33:19;;;;;;;60.00;36.80;;;;;;;11.56;81.81;100852.22;4994385;28;20065;-87
2023/03/23 04:35:47;;;;;;;94.05;50.95;;;;;;;11.53;82.71;100847.09;4991088;28;20038;-91
2023/03/23 04:38:14;;;;;;;59.20;36.25;;;;;;;11.52;82.93;100858.88;4974226;28;20019;-91
2023/03/23 04:40:44;;;;;;;51.63;28.00;;;;;;;11.46;82.74;100837.81;4972334;28;20134;-91
2023/03/23 04:43:12;;;;;;;56.90;31.00;;;;;;;11.54;83.45;100858.72;4954248;28;20023;-89
2023/03/23 04:45:41;;;;;;;47.58;28.48;;;;;;;11.54;83.93;100847.94;4971321;28;20041;-91
2023/03/23 04:48:07;;;;;;;43.83;28.15;;;;;;;11.44;84.19;100843.31;4971381;28;20030;-92
2023/03/23 04:50:33;;;;;;;43.90;26.65;;;;;;;11.48;84.13;100844.78;4971018;28;20449;-92
2023/03/23 04:53:03;;;;;;;44.20;28.55;;;;;;;11.52;83.50;100860.69;4985276;28;20027;-90
2023/03/23 04:55:30;;;;;;;46.92;27.25;;;;;;;11.53;83.96;100857.84;4971546;28;20031;-89
2023/03/23 04:57:59;;;;;;;36.00;21.80;;;;;;;11.51;84.03;100849.06;4977104;28;20049;-90
2023/03/23 05:00:26;;;;;;;28.10;16.70;;;;;;;11.61;83.30;100879.66;4979502;28;20031;-89
2023/03/23 05:02:51;;;;;;;30.33;18.15;;;;;;;11.66;83.13;100861.28;4983490;28;20318;-90
2023/03/23 05:05:19;;;;;;;32.03;20.05;;;;;;;11.75;83.37;100874.00;4966420;28;20070;-90
2023/03/23 05:07:45;;;;;;;32.75;20.55;;;;;;;11.72;82.62;100871.56;4989028;28;20030;-87
2023/03/23 05:10:12;;;;;;;33.40;19.85;;;;;;;11.79;82.37;100878.19;4988873;28;20043;-90
2023/03/23 05:12:38;;;;;;;30.48;17.38;;;;;;;11.74;81.84;100875.00;4986531;28;20109;-88
2023/03/23 05:15:06;;;;;;;15.27;10.45;;;;;;;11.81;81.46;100886.13;4987510;28;20050;-89
2023/03/23 05:17:33;;;;;;;18.50;11.90;;;;;;;11.79;81.28;100882.72;4982226;28;20114;-88
2023/03/23 05:19:59;;;;;;;13.95;10.05;;;;;;;11.89;80.25;100887.22;4985705;28;20054;-87
2023/03/23 05:22:27;;;;;;;16.88;10.63;;;;;;;11.90;79.71;100888.91;4985446;28;20037;-87
2023/03/23 05:24:53;;;;;;;16.50;11.60;;;;;;;11.83;79.59;100876.91;4987455;28;20035;-88
2023/03/23 05:27:21;;;;;;;20.70;12.63;;;;;;;11.90;80.25;100883.53;4992218;28;20031;-88
2023/03/23 05:29:51;;;;;;;9.48;7.57;;;;;;;11.98;79.92;100889.16;4989298;28;20038;-88
2023/03/23 05:32:16;;;;;;;12.40;6.85;;;;;;;11.94;79.46;100881.44;4996782;28;20054;-85
2023/03/23 05:34:43;;;;;;;11.55;8.18;;;;;;;12.02;78.91;100891.59;4995018;28;20117;-83
2023/03/23 05:37:11;;;;;;;15.07;9.23;;;;;;;12.04;78.38;100893.19;4975895;28;20212;-82
2023/03/23 05:39:37;;;;;;;19.27;11.77;;;;;;;12.06;78.12;100903.81;4974064;28;20026;-83
2023/03/23 05:42:04;;;;;;;16.00;11.32;;;;;;;12.07;78.15;100903.72;4974962;28;20400;-84
2023/03/23 05:44:30;;;;;;;23.10;11.02;;;;;;;12.03;78.01;100886.06;4974321;28;20038;-85
2023/03/23 05:46:55;;;;;;;14.90;10.60;;;;;;;11.99;78.40;100892.69;4976248;28;20109;-86
2023/03/23 05:49:21;;;;;;;15.48;10.48;;;;;;;12.04;78.49;100905.78;4974076;28;20065;-85
2023/03/23 05:51:47;;;;;;;16.10;10.85;;;;;;;12.03;78.97;100899.53;4973796;28;20030;-86
2023/03/23 05:54:14;;;;;;;22.42;11.50;;;;;;;12.07;79.57;100910.94;4974241;28;20515;-85
2023/03/23 05:56:40;;;;;;;12.45;9.02;;;;;;;12.07;79.34;100901.00;4974294;28;20019;-87
2023/03/23 05:59:05;;;;;;;15.75;9.50;;;;;;;12.13;78.87;100910.44;4975950;28;20105;-92
2023/03/23 06:01:31;;;;;;;14.50;9.85;;;;;;;12.09;78.83;100898.16;4981300;28;20023;-88
2023/03/23 06:03:58;;;;;;;21.42;13.88;;;;;;;12.10;78.39;100902.59;4983249;28;20034;-90
2023/03/23 06:06:28;;;;;;;16.52;12.10;;;;;;;12.23;78.36;100916.78;4982774;28;20042;-91
2023/03/23 06:08:53;;;;;;;15.15;10.82;;;;;;;12.22;78.62;100915.03;4993062;23;20034;-87
2023/03/23 06:11:19;;;;;;;20.17;14.30;;;;;;;12.24;78.83;100904.97;4996495;28;20039;-88
2023/03/23 06:13:45;;;;;;;13.13;9.27;;;;;;;12.20;78.28;100908.94;4997912;28;20041;-87
2023/03/23 06:16:10;;;;;;;11.32;8.50;;;;;;;12.37;78.69;100919.16;4994963;28;20033;-86
2023/03/23 06:18:36;;;;;;;10.70;7.63;;;;;;;12.33;77.86;100918.56;4994241;28;20034;-84
2023/03/23 06:21:04;;;;;;;16.83;8.25;;;;;;;12.39;77.49;100906.38;5196697;23;20279;-88
2023/03/23 06:23:30;;;;;;;13.95;7.70;;;;;;;12.54;77.49;100926.66;5313455;23;22193;-85
2023/03/23 06:30:54;;;;;;;13.93;8.20;;;;;;;12.62;76.65;100931.44;5053087;23;20098;-93
2023/03/23 06:33:19;;;;;;;13.70;8.35;;;;;;;12.61;77.16;100937.78;5188837;23;20101;-85
2023/03/23 06:38:19;;;;;;;14.43;9.18;;;;;;;12.59;77.77;100934.38;5201527;23;20032;-89
2023/03/23 06:43:20;;;;;;;15.88;9.98;;;;;;;12.69;76.80;100938.03;5120135;23;20058;-88
2023/03/23 06:45:46;;;;;;;25.45;14.55;;;;;;;12.76;76.63;100947.28;5014358;28;20099;-91
2023/03/23 06:48:12;;;;;;;18.40;12.05;;;;;;;12.78;76.98;100951.56;5107360;23;20068;-86
2023/03/23 06:50:38;;;;;;;15.30;11.73;;;;;;;12.80;76.93;100944.22;5200015;23;20042;-88
2023/03/23 06:53:03;;;;;;;21.17;13.90;;;;;;;12.84;76.73;100952.91;5236892;23;20061;-85
2023/03/23 06:55:56;;;;;;;14.57;11.75;;;;;;;12.71;77.15;100952.22;5291413;22;20042;-90
2023/03/23 06:58:23;;;;;;;20.02;11.57;;;;;;;12.76;76.50;100963.47;5225366;22;21689;-91
2023/03/23 07:03:31;;;;;;;19.48;14.35;;;;;;;12.57;77.52;100930.97;5026675;23;20046;-89
2023/03/23 07:08:31;;;;;;;17.50;12.18;;;;;;;12.69;76.49;100962.31;5057380;23;20050;-86
2023/03/23 07:10:57;;;;;;;17.67;12.40;;;;;;;12.73;75.97;100950.25;5018548;28;20065;-85
2023/03/23 07:13:23;;;;;;;13.65;9.75;;;;;;;12.84;76.57;100964.53;5044776;23;20034;-86
2023/03/23 07:15:50;;;;;;;12.68;9.63;;;;;;;12.83;75.76;100949.34;5026572;23;20054;-85
2023/03/23 07:18:16;;;;;;;20.35;11.13;;;;;;;12.93;75.50;100961.06;4979468;29;20015;-83
2023/03/23 07:20:42;;;;;;;15.68;10.65;;;;;;;13.03;75.83;100961.13;4995149;23;20055;-84
2023/03/23 07:23:07;;;;;;;15.23;10.05;;;;;;;13.13;75.17;100961.22;5139579;23;20299;-84
2023/03/23 07:28:08;;;;;;;16.00;11.38;;;;;;;13.21;73.81;100958.72;5132505;23;20149;-85
2023/03/23 07:30:34;;;;;;;13.85;9.73;;;;;;;13.23;74.19;100972.94;5018295;28;20050;-83
2023/03/23 07:33:03;;;;;;;13.52;9.68;;;;;;;13.19;73.28;100958.84;5179139;23;20054;-96
2023/03/23 07:35:30;;;;;;;16.02;9.32;;;;;;;13.09;72.38;100961.47;5007855;28;20029;-93
2023/03/23 07:37:55;;;;;;;14.35;9.82;;;;;;;13.24;72.96;100963.84;5037513;23;20078;-88
2023/03/23 07:40:21;;;;;;;11.98;8.82;;;;;;;13.24;72.91;100953.06;5011634;28;20022;-89
2023/03/23 07:42:53;;;;;;;14.30;9.73;;;;;;;13.36;73.18;100963.59;5009789;28;20033;-88
2023/03/23 07:45:18;;;;;;;13.48;9.93;;;;;;;13.35;72.10;100966.47;4992515;28;20022;-91
2023/03/23 07:50:14;;;;;;;15.95;11.30;;;;;;;13.37;72.47;100959.06;5007716;23;20081;-85
2023/03/23 07:52:41;;;;;;;15.88;10.32;;;;;;;13.53;72.43;100967.53;5012958;28;20090;-93
2023/03/23 07:55:09;;;;;;;16.38;10.80;;;;;;;13.60;72.79;100966.88;4986722;28;20098;-89
2023/03/23 07:57:35;;;;;;;17.10;11.50;;;;;;;13.74;72.05;100968.34;4984533;28;20113;-93
2023/03/23 08:00:03;;;;;;;16.10;11.93;;;;;;;13.71;71.13;100957.81;5003704;28;20073;-92
2023/03/23 08:02:28;;;;;;;16.55;10.55;;;;;;;13.87;71.34;100974.38;5003724;28;20108;-92
2023/03/23 08:04:56;;;;;;;24.42;12.57;;;;;;;13.96;71.73;100973.53;4984289;28;20026;-86
2023/03/23 08:07:22;;;;;;;19.90;12.93;;;;;;;14.06;71.19;100984.41;4982986;28;20133;-93
2023/03/23 08:09:47;;;;;;;19.25;11.40;;;;;;;13.95;71.67;100965.56;5000644;28;20383;-91
2023/03/23 08:12:13;;;;;;;14.52;10.35;;;;;;;13.83;70.37;100977.47;5001487;28;20048;-91
2023/03/23 08:14:41;;;;;;;15.15;9.57;;;;;;;13.93;69.50;100978.38;5002995;28;20417;-91
2023/03/23 08:17:07;;;;;;;15.57;11.38;;;;;;;13.93;68.49;100983.78;5000277;28;20035;-88
2023/03/23 08:19:36;;;;;;;17.73;11.43;;;;;;;13.93;68.87;100986.47;4985455;28;20098;-92
2023/03/23 08:22:05;;;;;;;15.82;9.85;;;;;;;13.86;68.80;100980.75;5012926;28;20025;-87
2023/03/23 08:24:32;;;;;;;27.58;10.55;;;;;;;13.79;69.06;100981.47;4996359;28;20024;-86
2023/03/23 08:26:58;;;;;;;19.77;12.98;;;;;;;13.84;69.56;100990.88;4998245;28;20041;-85
2023/03/23 08:29:24;;;;;;;27.45;18.23;;;;;;;13.80;68.99;100991.25;5015593;28;20102;-89
2023/03/23 08:31:50;;;;;;;20.23;13.55;;;;;;;13.75;69.20;100986.28;5005950;28;20042;-95
2023/03/23 08:34:15;;;;;;;18.35;11.23;;;;;;;13.71;69.12;100976.72;4997486;28;20065;-93
2023/03/23 08:36:43;;;;;;;17.65;12.18;;;;;;;13.71;68.84;100983.97;4996754;28;20044;-93
2023/03/23 08:39:09;;;;;;;19.05;12.82;;;;;;;13.57;68.34;100985.22;4996810;28;20026;-92
2023/03/23 08:41:35;;;;;;;23.58;12.70;;;;;;;13.46;68.75;100991.53;4995160;28;20049;-93
2023/03/23 08:44:01;;;;;;;19.55;13.05;;;;;;;13.45;69.34;100994.41;4995885;28;20040;-94
2023/03/23 08:46:32;;;;;;;18.77;11.68;;;;;;;13.49;68.98;100990.41;5002569;28;20026;-90
2023/03/23 08:48:58;;;;;;;17.50;10.82;;;;;;;13.55;68.93;100997.97;5003444;28;20142;-93
2023/03/23 08:51:45;;;;;;;16.23;10.00;;;;;;;13.61;68.62;100995.59;5005952;28;20065;-84
2023/03/23 08:54:31;;;;;;;17.83;11.02;;;;;;;13.59;68.12;100989.47;4965536;28;20059;-94
2023/03/23 08:57:00;;;;;;;16.63;10.68;;;;;;;13.64;68.16;100989.06;4917842;29;20052;-90
2023/03/23 08:59:26;;;;;;;14.27;10.60;;;;;;;13.75;68.40;100994.41;4924590;29;20583;-94
2023/03/23 09:01:52;;;;;;;15.65;10.40;;;;;;;13.86;67.95;100994.28;4926963;29;20103;-89
2023/03/23 09:04:18;;;;;;;25.60;13.02;;;;;;;13.97;68.23;100999.59;4922754;29;20048;-95
2023/03/23 09:06:44;;;;;;;20.13;12.18;;;;;;;14.11;67.61;100982.13;4903019;29;20051;-91
2023/03/23 09:09:09;;;;;;;19.40;11.90;;;;;;;14.25;67.74;100994.41;4917755;29;20072;-92
2023/03/23 09:11:36;;;;;;;18.98;12.55;;;;;;;14.33;67.56;100986.47;4918484;29;20040;-93
2023/03/23 09:14:03;;;;;;;20.65;12.38;;;;;;;14.45;67.22;100982.63;4922065;29;20054;-92
2023/03/23 09:16:29;;;;;;;23.75;13.57;;;;;;;14.58;67.00;100983.22;4922697;29;20108;-91
2023/03/23 09:18:56;;;;;;;21.35;12.50;;;;;;;14.67;66.98;100987.78;4931115;29;20174;-91
2023/03/23 09:21:23;;;;;;;16.98;9.20;;;;;;;14.64;65.26;100969.97;4934546;29;20088;-89
2023/03/23 09:23:48;;;;;;;16.27;9.25;;;;;;;14.62;63.94;100976.50;4934804;29;20043;-83
2023/03/23 09:26:14;;;;;;;19.67;9.98;;;;;;;14.55;64.29;100986.22;4958383;28;20110;-85
2023/03/23 09:28:40;;;;;;;24.45;14.45;;;;;;;14.37;67.87;100974.38;5027715;28;20118;-90
2023/03/23 09:31:06;;;;;;;26.70;14.20;;;;;;;14.00;69.83;100985.81;5016510;28;20089;-92
2023/03/23 09:33:34;;;;;;;29.48;15.48;;;;;;;13.87;70.65;100968.97;4999853;28;20034;-92
2023/03/23 09:36:02;;;;;;;26.33;14.32;;;;;;;13.50;71.27;100989.44;5014438;28;20114;-92
2023/03/23 09:38:31;;;;;;;31.23;14.57;;;;;;;13.15;71.94;100967.34;5014283;28;20086;-92
2023/03/23 09:41:35;;;;;;;22.70;14.75;;;;;;;12.96;73.67;100977.00;4997093;28;20042;-91
2023/03/23 09:44:30;;;;;;;29.55;14.55;;;;;;;12.87;74.35;100993.97;4937597;29;20040;-91
2023/03/23 09:47:03;;;;;;;22.13;13.95;;;;;;;12.85;75.13;100992.38;4937787;29;20038;-88
2023/03/23 09:49:43;;;;;;;23.83;15.27;;;;;;;12.92;75.93;100990.88;4948799;29;20052;-96
2023/03/23 09:52:17;;;;;;;43.00;15.70;;;;;;;12.94;75.68;100981.66;4936215;29;20036;-91
2023/03/23 09:54:47;;;;;;;33.40;14.80;;;;;;;13.02;75.26;100981.88;4938029;29;20044;-89
2023/03/23 09:57:22;;;;;;;32.72;15.93;;;;;;;13.18;74.98;100983.28;4941371;29;20024;-85
2023/03/23 09:59:56;;;;;;;32.33;16.23;;;;;;;13.25;75.48;100987.16;4938730;29;20415;-91
2023/03/23 10:02:30;;;;;;;19.95;14.07;;;;;;;13.23;75.13;100981.03;4935203;29;20068;-93
2023/03/23 10:05:15;;;;;;;32.63;15.88;;;;;;;13.18;75.50;100975.19;4933871;29;20044;-91
2023/03/23 10:07:41;;;;;;;29.10;16.83;;;;;;;13.37;75.48;100975.28;4915382;29;20043;-89
2023/03/23 10:10:13;;;;;;;26.85;17.05;;;;;;;13.35;74.95;100951.13;4920751;29;20104;-89
2023/03/23 10:12:53;;;;;;;26.80;16.02;;;;;;;13.69;73.79;100970.59;4914108;29;20032;-90
2023/03/23 10:15:28;;;;;;;33.35;16.45;;;;;;;13.77;74.12;100973.47;4915666;29;20123;-90
2023/03/23 10:18:09;;;;;;;33.30;15.43;;;;;;;13.82;72.62;100970.38;4931441;29;20139;-93
2023/03/23 10:20:54;;;;;;;30.15;14.32;;;;;;;13.95;72.12;100976.38;4960807;28;20057;-92
2023/03/23 10:23:51;;;;;;;21.15;13.45;;;;;;;13.95;71.06;100970.97;5015189;28;20038;-88
2023/03/23 10:26:17;;;;;;;20.40;14.52;;;;;;;14.03;71.14;100958.50;5016851;28;20035;-84
2023/03/23 10:28:56;;;;;;;23.48;15.32;;;;;;;14.16;71.17;100969.03;4999283;28;20101;-90
2023/03/23 10:31:28;;;;;;;32.33;14.55;;;;;;;14.24;70.70;100954.81;4992779;28;20034;-83
2023/03/23 10:33:58;;;;;;;30.92;15.25;;;;;;;14.49;70.21;100970.53;5009628;28;20038;-90
2023/03/23 10:36:37;;;;;;;36.78;16.42;;;;;;;14.36;69.59;100959.13;4995564;28;20122;-86
2023/03/23 10:39:14;;;;;;;22.27;14.43;;;;;;;14.29;69.59;100961.50;5004999;28;20042;-87
2023/03/23 10:41:40;;;;;;;28.15;14.40;;;;;;;14.25;69.91;100964.66;5007568;28;20057;-88
2023/03/23 10:44:16;;;;;;;20.38;13.85;;;;;;;14.34;69.59;100971.97;5003707;28;20034;-91
2023/03/23 10:46:48;;;;;;;20.30;13.60;;;;;;;14.24;69.93;100954.81;4997498;28;20036;-88
2023/03/23 10:49:21;;;;;;;31.63;15.30;;;;;;;14.18;68.67;100956.22;4999193;28;20204;-88
2023/03/23 10:52:02;;;;;;;28.25;14.05;;;;;;;14.24;69.00;100961.06;5002833;28;20018;-88
2023/03/23 10:54:35;;;;;;;21.60;13.32;;;;;;;14.07;69.37;100954.50;5005760;28;20034;-88
2023/03/23 10:57:12;;;;;;;28.70;15.02;;;;;;;14.09;68.65;100949.81;5003141;28;20022;-88
2023/03/23 10:59:40;;;;;;;35.72;14.82;;;;;;;14.03;70.31;100949.50;4997896;28;20030;-92
2023/03/23 11:02:16;;;;;;;31.00;14.85;;;;;;;14.05;69.95;100936.69;4997629;28;20030;-89
2023/03/23 11:04:46;;;;;;;26.50;13.82;;;;;;;14.10;69.59;100943.38;4981798;28;20037;-91
2023/03/23 11:07:27;;;;;;;41.83;16.00;;;;;;;14.15;69.55;100946.56;5001544;28;20085;-89
2023/03/23 11:10:03;;;;;;;21.27;14.15;;;;;;;14.01;70.16;100949.63;4996186;28;20066;-92
2023/03/23 11:12:33;;;;;;;34.63;15.57;;;;;;;13.98;70.76;100933.69;4998765;28;20064;-91
2023/03/23 11:15:15;;;;;;;40.42;16.83;;;;;;;14.11;69.42;100938.84;5000959;28;20105;-91
2023/03/23 11:17:41;;;;;;;28.77;15.45;;;;;;;14.12;69.09;100941.41;5004493;28;20033;-90
2023/03/23 11:20:12;;;;;;;27.05;13.68;;;;;;;13.91;68.55;100940.63;5010269;28;20030;-88
2023/03/23 11:22:37;;;;;;;30.13;13.25;;;;;;;13.79;68.29;100919.28;4999379;28;20038;-85
2023/03/23 11:25:05;;;;;;;28.42;13.10;;;;;;;13.82;68.15;100938.75;4994714;28;20052;-90
2023/03/23 11:27:33;;;;;;;23.08;12.25;;;;;;;13.77;68.32;100926.66;4993761;28;20026;-89
2023/03/23 11:30:09;;;;;;;24.35;14.00;;;;;;;13.76;68.74;100931.19;4992591;28;20050;-90
2023/03/23 11:32:36;;;;;;;28.65;14.10;;;;;;;13.81;69.17;100942.47;4960966;28;20049;-89
2023/03/23 11:35:05;;;;;;;19.52;12.95;;;;;;;13.76;68.63;100941.19;4993727;28;20030;-89
2023/03/23 11:37:43;;;;;;;30.52;14.23;;;;;;;13.58;69.53;100936.41;4993292;28;20116;-91
2023/03/23 11:40:11;;;;;;;25.02;14.88;;;;;;;13.60;69.82;100933.59;4992716;28;20046;-89
2023/03/23 11:42:48;;;;;;;36.13;16.35;;;;;;;13.67;70.36;100940.13;4975529;28;20030;-89
2023/03/23 11:45:22;;;;;;;41.67;18.25;;;;;;;13.71;70.21;100938.03;4993273;28;20034;-87
2023/03/23 11:48:34;;;;;;;36.53;18.40;;;;;;;13.83;70.28;100940.47;4976863;28;20046;-90